sensor_id;sensor_type;location;lat;lon;timestamp;temperature;humidity
13589;DHT22;6865;52.552;13.434;2022-07-23T00:00:10;18.60;99.90
13589;DHT22;6865;52.552;13.434;2022-07-23T00:02:37;18.60;99.90
13589;DHT22;6865;52.552;13.434;2022-07-23T00:05:04;18.60;99.90
13589;DHT22;6865;52.552;13.434;2022-07-23T00:07:30;18.60;99.90
13589;DHT22;6865;52.552;13.434;2022-07-23T00:09:57;18.60;99.90
13589;DHT22;6865;52.552;13.434;2022-07-23T00:12:24;18.50;99.90
13589;DHT22;6865;52.552;13.434;2022-07-23T00:14:51;18.50;99.90
13589;DHT22;6865;52.552;13.434;2022-07-23T00:17:18;18.40;99.90
13589;DHT22;6865;52.552;13.434;2022-07-23T00:19:45;18.40;99.90
13589;DHT22;6865;52.552;13.434;2022-07-23T00:22:11;18.40;99.90
13589;DHT22;6865;52.552;13.434;2022-07-23T00:24:38;18.40;99.90
13589;DHT22;6865;52.552;13.434;2022-07-23T00:27:04;18.40;99.90
13589;DHT22;6865;52.552;13.434;2022-07-23T00:29:31;18.30;99.90
13589;DHT22;6865;52.552;13.434;2022-07-23T00:31:58;18.40;99.90
13589;DHT22;6865;52.552;13.434;2022-07-23T00:34:25;18.50;99.90
13589;DHT22;6865;52.552;13.434;2022-07-23T00:36:51;18.40;99.90
13589;DHT22;6865;52.552;13.434;2022-07-23T00:39:20;18.40;99.90
13589;DHT22;6865;52.552;13.434;2022-07-23T00:41:50;18.40;99.90
13589;DHT22;6865;52.552;13.434;2022-07-23T00:44:23;18.40;99.90
13589;DHT22;6865;52.552;13.434;2022-07-23T00:46:53;18.40;99.90
13589;DHT22;6865;52.552;13.434;2022-07-23T00:49:21;18.40;99.90
13589;DHT22;6865;52.552;13.434;2022-07-23T00:51:48;18.40;99.90
13589;DHT22;6865;52.552;13.434;2022-07-23T00:54:17;18.40;99.90
13589;DHT22;6865;52.552;13.434;2022-07-23T00:56:44;18.30;99.90
13589;DHT22;6865;52.552;13.434;2022-07-23T00:59:12;18.40;99.90
13589;DHT22;6865;52.552;13.434;2022-07-23T01:01:39;18.40;99.90
13589;DHT22;6865;52.552;13.434;2022-07-23T01:04:06;18.40;99.90
13589;DHT22;6865;52.552;13.434;2022-07-23T01:06:35;18.30;99.90
13589;DHT22;6865;52.552;13.434;2022-07-23T01:09:06;18.30;99.90
13589;DHT22;6865;52.552;13.434;2022-07-23T01:11:35;18.30;99.90
13589;DHT22;6865;52.552;13.434;2022-07-23T01:14:12;18.30;99.90
13589;DHT22;6865;52.552;13.434;2022-07-23T01:16:41;18.30;99.90
13589;DHT22;6865;52.552;13.434;2022-07-23T01:19:08;18.20;99.90
13589;DHT22;6865;52.552;13.434;2022-07-23T01:21:40;18.20;99.90
13589;DHT22;6865;52.552;13.434;2022-07-23T01:24:08;18.20;99.90
13589;DHT22;6865;52.552;13.434;2022-07-23T01:26:36;18.20;99.90
13589;DHT22;6865;52.552;13.434;2022-07-23T01:29:04;18.10;99.90
13589;DHT22;6865;52.552;13.434;2022-07-23T01:31:31;18.00;99.90
13589;DHT22;6865;52.552;13.434;2022-07-23T01:33:58;17.90;99.90
13589;DHT22;6865;52.552;13.434;2022-07-23T01:36:26;17.00;99.90
13589;DHT22;6865;52.552;13.434;2022-07-23T01:38:52;17.80;99.90
13589;DHT22;6865;52.552;13.434;2022-07-23T01:41:19;17.90;99.90
13589;DHT22;6865;52.552;13.434;2022-07-23T01:43:46;17.80;99.90
13589;DHT22;6865;52.552;13.434;2022-07-23T01:46:13;17.80;99.90
13589;DHT22;6865;52.552;13.434;2022-07-23T01:48:43;17.80;99.90
13589;DHT22;6865;52.552;13.434;2022-07-23T01:51:09;17.80;99.90
13589;DHT22;6865;52.552;13.434;2022-07-23T02:06:14;17.70;99.90
13589;DHT22;6865;52.552;13.434;2022-07-23T02:08:41;17.70;99.90
13589;DHT22;6865;52.552;13.434;2022-07-23T02:11:07;17.70;99.90
13589;DHT22;6865;52.552;13.434;2022-07-23T02:13:34;17.60;99.90
13589;DHT22;6865;52.552;13.434;2022-07-23T02:16:01;17.70;99.90
13589;DHT22;6865;52.552;13.434;2022-07-23T02:18:28;17.70;99.90
13589;DHT22;6865;52.552;13.434;2022-07-23T02:20:54;17.70;99.90
13589;DHT22;6865;52.552;13.434;2022-07-23T02:23:21;17.60;99.90
13589;DHT22;6865;52.552;13.434;2022-07-23T02:25:48;17.70;99.90
13589;DHT22;6865;52.552;13.434;2022-07-23T02:28:14;17.70;99.90
13589;DHT22;6865;52.552;13.434;2022-07-23T02:30:41;17.60;99.90
13589;DHT22;6865;52.552;13.434;2022-07-23T02:33:08;17.50;99.90
13589;DHT22;6865;52.552;13.434;2022-07-23T02:35:35;17.30;99.90
13589;DHT22;6865;52.552;13.434;2022-07-23T02:38:01;17.40;99.90
13589;DHT22;6865;52.552;13.434;2022-07-23T02:40:28;17.40;99.90
13589;DHT22;6865;52.552;13.434;2022-07-23T02:42:55;17.40;99.90
13589;DHT22;6865;52.552;13.434;2022-07-23T02:45:21;17.40;99.90
13589;DHT22;6865;52.552;13.434;2022-07-23T02:47:48;17.30;99.90
13589;DHT22;6865;52.552;13.434;2022-07-23T02:50:15;17.30;99.90
13589;DHT22;6865;52.552;13.434;2022-07-23T02:52:41;17.30;99.90
13589;DHT22;6865;52.552;13.434;2022-07-23T02:55:08;17.20;99.90
13589;DHT22;6865;52.552;13.434;2022-07-23T02:57:35;17.20;99.90
13589;DHT22;6865;52.552;13.434;2022-07-23T03:00:02;17.10;99.90
13589;DHT22;6865;52.552;13.434;2022-07-23T03:02:29;17.10;99.90
13589;DHT22;6865;52.552;13.434;2022-07-23T03:04:56;16.80;99.90
13589;DHT22;6865;52.552;13.434;2022-07-23T03:07:22;17.00;99.90
13589;DHT22;6865;52.552;13.434;2022-07-23T03:09:49;16.90;99.90
13589;DHT22;6865;52.552;13.434;2022-07-23T03:12:16;16.90;99.90
13589;DHT22;6865;52.552;13.434;2022-07-23T03:14:42;16.90;99.90
13589;DHT22;6865;52.552;13.434;2022-07-23T03:17:09;16.80;99.90
13589;DHT22;6865;52.552;13.434;2022-07-23T03:19:36;16.80;99.90
13589;DHT22;6865;52.552;13.434;2022-07-23T03:22:04;16.80;99.90
13589;DHT22;6865;52.552;13.434;2022-07-23T03:24:31;16.70;99.90
13589;DHT22;6865;52.552;13.434;2022-07-23T03:27:16;16.70;99.90
13589;DHT22;6865;52.552;13.434;2022-07-23T03:29:43;16.60;99.90
13589;DHT22;6865;52.552;13.434;2022-07-23T03:32:10;16.60;99.90
13589;DHT22;6865;52.552;13.434;2022-07-23T03:34:37;16.60;99.90
13589;DHT22;6865;52.552;13.434;2022-07-23T03:37:05;16.60;99.90
13589;DHT22;6865;52.552;13.434;2022-07-23T03:39:32;16.60;99.90
13589;DHT22;6865;52.552;13.434;2022-07-23T03:42:00;16.60;99.90
13589;DHT22;6865;52.552;13.434;2022-07-23T03:44:28;16.60;99.90
13589;DHT22;6865;52.552;13.434;2022-07-23T03:46:55;16.60;99.90
13589;DHT22;6865;52.552;13.434;2022-07-23T03:49:25;16.60;99.90
13589;DHT22;6865;52.552;13.434;2022-07-23T03:51:53;16.60;99.90
13589;DHT22;6865;52.552;13.434;2022-07-23T03:54:20;16.60;99.90
13589;DHT22;6865;52.552;13.434;2022-07-23T03:56:47;16.60;99.90
13589;DHT22;6865;52.552;13.434;2022-07-23T03:59:14;16.50;99.90
13589;DHT22;6865;52.552;13.434;2022-07-23T04:01:49;16.50;99.90
13589;DHT22;6865;52.552;13.434;2022-07-23T04:04:19;16.50;99.90
13589;DHT22;6865;52.552;13.434;2022-07-23T04:06:51;16.60;99.90
13589;DHT22;6865;52.552;13.434;2022-07-23T04:09:18;16.60;99.90
13589;DHT22;6865;52.552;13.434;2022-07-23T04:11:46;16.60;99.90
13589;DHT22;6865;52.552;13.434;2022-07-23T04:14:13;16.60;99.90
13589;DHT22;6865;52.552;13.434;2022-07-23T04:16:40;16.60;99.90
13589;DHT22;6865;52.552;13.434;2022-07-23T04:19:07;16.30;99.90
13589;DHT22;6865;52.552;13.434;2022-07-23T04:21:34;16.60;99.90
13589;DHT22;6865;52.552;13.434;2022-07-23T04:24:01;16.50;99.90
13589;DHT22;6865;52.552;13.434;2022-07-23T04:26:28;16.60;99.90
13589;DHT22;6865;52.552;13.434;2022-07-23T04:28:55;16.60;99.90
13589;DHT22;6865;52.552;13.434;2022-07-23T04:31:22;16.60;99.90
13589;DHT22;6865;52.552;13.434;2022-07-23T04:33:49;16.50;99.90
13589;DHT22;6865;52.552;13.434;2022-07-23T04:36:15;16.60;99.90
13589;DHT22;6865;52.552;13.434;2022-07-23T04:38:42;16.70;99.90
13589;DHT22;6865;52.552;13.434;2022-07-23T04:41:09;16.70;99.90
13589;DHT22;6865;52.552;13.434;2022-07-23T04:43:35;16.70;99.90
13589;DHT22;6865;52.552;13.434;2022-07-23T04:46:02;16.50;99.90
13589;DHT22;6865;52.552;13.434;2022-07-23T04:48:29;16.30;99.90
13589;DHT22;6865;52.552;13.434;2022-07-23T04:50:55;16.10;99.90
13589;DHT22;6865;52.552;13.434;2022-07-23T04:53:22;16.00;99.90
13589;DHT22;6865;52.552;13.434;2022-07-23T04:55:49;16.90;99.90
13589;DHT22;6865;52.552;13.434;2022-07-23T04:58:15;15.80;99.90
13589;DHT22;6865;52.552;13.434;2022-07-23T05:00:42;15.60;99.90
13589;DHT22;6865;52.552;13.434;2022-07-23T05:03:09;15.60;99.90
13589;DHT22;6865;52.552;13.434;2022-07-23T05:05:35;15.60;99.90
13589;DHT22;6865;52.552;13.434;2022-07-23T05:08:02;15.50;99.90
13589;DHT22;6865;52.552;13.434;2022-07-23T05:10:29;15.50;99.90
13589;DHT22;6865;52.552;13.434;2022-07-23T05:12:56;15.50;99.90
13589;DHT22;6865;52.552;13.434;2022-07-23T05:15:23;15.50;99.90
13589;DHT22;6865;52.552;13.434;2022-07-23T05:17:50;15.50;99.90
13589;DHT22;6865;52.552;13.434;2022-07-23T05:20:16;15.40;99.90
13589;DHT22;6865;52.552;13.434;2022-07-23T05:22:43;15.40;99.90
13589;DHT22;6865;52.552;13.434;2022-07-23T05:25:10;15.30;99.90
13589;DHT22;6865;52.552;13.434;2022-07-23T05:27:36;15.30;99.90
13589;DHT22;6865;52.552;13.434;2022-07-23T05:30:03;15.00;99.90
13589;DHT22;6865;52.552;13.434;2022-07-23T05:32:32;15.30;99.90
13589;DHT22;6865;52.552;13.434;2022-07-23T05:34:59;15.30;99.90
13589;DHT22;6865;52.552;13.434;2022-07-23T05:37:25;15.40;99.90
13589;DHT22;6865;52.552;13.434;2022-07-23T05:39:52;15.40;99.90
13589;DHT22;6865;52.552;13.434;2022-07-23T05:42:19;15.40;99.90
13589;DHT22;6865;52.552;13.434;2022-07-23T05:44:45;15.30;99.90
13589;DHT22;6865;52.552;13.434;2022-07-23T05:47:12;15.10;99.90
13589;DHT22;6865;52.552;13.434;2022-07-23T05:49:39;15.40;99.90
13589;DHT22;6865;52.552;13.434;2022-07-23T05:52:06;15.50;99.90
13589;DHT22;6865;52.552;13.434;2022-07-23T05:54:36;15.50;99.90
13589;DHT22;6865;52.552;13.434;2022-07-23T05:57:03;15.40;99.90
13589;DHT22;6865;52.552;13.434;2022-07-23T05:59:30;15.60;99.90
13589;DHT22;6865;52.552;13.434;2022-07-23T06:01:56;15.60;99.90
13589;DHT22;6865;52.552;13.434;2022-07-23T06:04:23;15.60;99.90
13589;DHT22;6865;52.552;13.434;2022-07-23T06:06:50;15.70;99.90
13589;DHT22;6865;52.552;13.434;2022-07-23T06:09:17;15.70;99.90
13589;DHT22;6865;52.552;13.434;2022-07-23T06:11:43;15.70;99.90
13589;DHT22;6865;52.552;13.434;2022-07-23T06:14:10;15.60;99.90
13589;DHT22;6865;52.552;13.434;2022-07-23T06:16:37;15.50;99.90
13589;DHT22;6865;52.552;13.434;2022-07-23T06:19:03;15.50;99.90
13589;DHT22;6865;52.552;13.434;2022-07-23T06:21:30;15.50;99.90
13589;DHT22;6865;52.552;13.434;2022-07-23T06:24:14;15.50;99.90
13589;DHT22;6865;52.552;13.434;2022-07-23T06:26:41;15.50;99.90
13589;DHT22;6865;52.552;13.434;2022-07-23T06:29:08;15.50;99.90
13589;DHT22;6865;52.552;13.434;2022-07-23T06:31:34;15.60;99.90
13589;DHT22;6865;52.552;13.434;2022-07-23T06:34:01;15.70;99.90
13589;DHT22;6865;52.552;13.434;2022-07-23T06:36:28;15.60;99.90
13589;DHT22;6865;52.552;13.434;2022-07-23T06:38:54;15.60;99.90
13589;DHT22;6865;52.552;13.434;2022-07-23T06:41:21;15.60;99.90
13589;DHT22;6865;52.552;13.434;2022-07-23T06:43:49;15.70;99.90
13589;DHT22;6865;52.552;13.434;2022-07-23T06:46:16;15.70;99.90
13589;DHT22;6865;52.552;13.434;2022-07-23T06:48:43;15.80;99.90
13589;DHT22;6865;52.552;13.434;2022-07-23T06:51:10;15.70;99.90
13589;DHT22;6865;52.552;13.434;2022-07-23T06:53:36;15.80;99.90
13589;DHT22;6865;52.552;13.434;2022-07-23T06:56:03;15.80;99.90
13589;DHT22;6865;52.552;13.434;2022-07-23T06:58:30;15.90;99.90
13589;DHT22;6865;52.552;13.434;2022-07-23T07:00:56;16.00;99.90
13589;DHT22;6865;52.552;13.434;2022-07-23T07:03:23;16.00;99.90
13589;DHT22;6865;52.552;13.434;2022-07-23T07:05:50;16.00;99.90
13589;DHT22;6865;52.552;13.434;2022-07-23T07:08:16;16.10;99.90
13589;DHT22;6865;52.552;13.434;2022-07-23T07:10:43;16.10;99.90
13589;DHT22;6865;52.552;13.434;2022-07-23T07:13:10;16.10;99.90
13589;DHT22;6865;52.552;13.434;2022-07-23T07:15:36;16.20;99.90
13589;DHT22;6865;52.552;13.434;2022-07-23T07:18:03;16.10;99.90
13589;DHT22;6865;52.552;13.434;2022-07-23T07:20:30;16.20;99.90
13589;DHT22;6865;52.552;13.434;2022-07-23T07:22:56;16.20;99.90
13589;DHT22;6865;52.552;13.434;2022-07-23T07:25:23;16.30;99.90
13589;DHT22;6865;52.552;13.434;2022-07-23T07:27:50;16.40;99.90
13589;DHT22;6865;52.552;13.434;2022-07-23T07:30:16;16.60;99.90
13589;DHT22;6865;52.552;13.434;2022-07-23T07:32:43;16.70;99.90
13589;DHT22;6865;52.552;13.434;2022-07-23T07:35:25;16.90;99.90
13589;DHT22;6865;52.552;13.434;2022-07-23T07:37:52;17.00;99.90
13589;DHT22;6865;52.552;13.434;2022-07-23T07:40:19;17.10;99.90
13589;DHT22;6865;52.552;13.434;2022-07-23T07:42:50;17.20;99.90
13589;DHT22;6865;52.552;13.434;2022-07-23T07:45:17;17.20;99.90
13589;DHT22;6865;52.552;13.434;2022-07-23T07:47:46;17.30;99.90
13589;DHT22;6865;52.552;13.434;2022-07-23T07:50:13;17.30;99.90
13589;DHT22;6865;52.552;13.434;2022-07-23T07:52:40;17.50;99.90
13589;DHT22;6865;52.552;13.434;2022-07-23T07:55:08;17.50;99.90
13589;DHT22;6865;52.552;13.434;2022-07-23T07:57:35;17.60;99.90
13589;DHT22;6865;52.552;13.434;2022-07-23T08:00:04;17.60;99.90
13589;DHT22;6865;52.552;13.434;2022-07-23T08:02:49;17.60;99.90
13589;DHT22;6865;52.552;13.434;2022-07-23T08:05:21;17.60;99.90
13589;DHT22;6865;52.552;13.434;2022-07-23T08:07:54;17.60;99.90
13589;DHT22;6865;52.552;13.434;2022-07-23T08:10:22;17.90;99.90
13589;DHT22;6865;52.552;13.434;2022-07-23T08:12:51;18.30;99.90
13589;DHT22;6865;52.552;13.434;2022-07-23T08:15:20;18.50;99.90
13589;DHT22;6865;52.552;13.434;2022-07-23T08:17:47;18.60;99.90
13589;DHT22;6865;52.552;13.434;2022-07-23T08:20:17;18.80;99.90
13589;DHT22;6865;52.552;13.434;2022-07-23T08:22:53;18.80;99.90
13589;DHT22;6865;52.552;13.434;2022-07-23T08:25:29;18.80;99.90
13589;DHT22;6865;52.552;13.434;2022-07-23T08:27:57;18.80;99.90
13589;DHT22;6865;52.552;13.434;2022-07-23T08:30:24;18.70;99.90
13589;DHT22;6865;52.552;13.434;2022-07-23T08:32:59;18.90;99.90
13589;DHT22;6865;52.552;13.434;2022-07-23T08:35:43;18.80;99.90
13589;DHT22;6865;52.552;13.434;2022-07-23T08:38:11;18.80;99.90
13589;DHT22;6865;52.552;13.434;2022-07-23T08:40:40;18.90;99.90
13589;DHT22;6865;52.552;13.434;2022-07-23T08:43:14;18.90;99.90
13589;DHT22;6865;52.552;13.434;2022-07-23T08:45:47;19.00;99.90
13589;DHT22;6865;52.552;13.434;2022-07-23T08:48:16;19.00;99.90
13589;DHT22;6865;52.552;13.434;2022-07-23T08:50:51;19.10;99.90
13589;DHT22;6865;52.552;13.434;2022-07-23T08:53:19;19.20;99.90
13589;DHT22;6865;52.552;13.434;2022-07-23T08:55:47;19.30;99.90
13589;DHT22;6865;52.552;13.434;2022-07-23T08:58:14;19.40;99.90
13589;DHT22;6865;52.552;13.434;2022-07-23T09:00:42;19.50;99.90
13589;DHT22;6865;52.552;13.434;2022-07-23T09:03:36;19.60;99.90
13589;DHT22;6865;52.552;13.434;2022-07-23T09:06:03;19.70;99.90
13589;DHT22;6865;52.552;13.434;2022-07-23T09:08:37;19.60;99.90
13589;DHT22;6865;52.552;13.434;2022-07-23T09:11:26;19.70;99.90
13589;DHT22;6865;52.552;13.434;2022-07-23T09:13:54;19.80;99.90
13589;DHT22;6865;52.552;13.434;2022-07-23T09:16:30;20.00;99.90
13589;DHT22;6865;52.552;13.434;2022-07-23T09:19:02;20.20;99.90
13589;DHT22;6865;52.552;13.434;2022-07-23T09:21:33;20.20;99.90
13589;DHT22;6865;52.552;13.434;2022-07-23T09:24:02;20.30;99.90
13589;DHT22;6865;52.552;13.434;2022-07-23T09:26:34;20.30;99.90
13589;DHT22;6865;52.552;13.434;2022-07-23T09:29:04;20.40;99.90
13589;DHT22;6865;52.552;13.434;2022-07-23T09:31:51;20.50;99.90
13589;DHT22;6865;52.552;13.434;2022-07-23T09:34:26;20.50;99.90
13589;DHT22;6865;52.552;13.434;2022-07-23T09:36:58;20.70;99.90
13589;DHT22;6865;52.552;13.434;2022-07-23T09:39:27;20.80;99.90
13589;DHT22;6865;52.552;13.434;2022-07-23T09:41:54;20.90;99.90
13589;DHT22;6865;52.552;13.434;2022-07-23T09:44:21;21.00;99.90
13589;DHT22;6865;52.552;13.434;2022-07-23T09:46:58;21.10;99.90
13589;DHT22;6865;52.552;13.434;2022-07-23T09:49:25;21.10;99.90
13589;DHT22;6865;52.552;13.434;2022-07-23T09:51:59;21.00;99.90
13589;DHT22;6865;52.552;13.434;2022-07-23T09:54:30;21.00;99.90
13589;DHT22;6865;52.552;13.434;2022-07-23T09:57:04;21.20;99.90
13589;DHT22;6865;52.552;13.434;2022-07-23T09:59:34;21.40;99.90
13589;DHT22;6865;52.552;13.434;2022-07-23T10:02:02;21.50;99.90
13589;DHT22;6865;52.552;13.434;2022-07-23T10:04:30;21.50;99.90
13589;DHT22;6865;52.552;13.434;2022-07-23T10:06:59;21.40;99.90
13589;DHT22;6865;52.552;13.434;2022-07-23T10:09:34;21.40;99.90
13589;DHT22;6865;52.552;13.434;2022-07-23T10:12:13;21.50;99.90
13589;DHT22;6865;52.552;13.434;2022-07-23T10:14:59;21.60;99.90
13589;DHT22;6865;52.552;13.434;2022-07-23T10:17:30;21.40;99.90
13589;DHT22;6865;52.552;13.434;2022-07-23T10:19:57;21.90;99.90
13589;DHT22;6865;52.552;13.434;2022-07-23T10:22:27;21.80;99.90
13589;DHT22;6865;52.552;13.434;2022-07-23T10:25:22;21.50;99.90
13589;DHT22;6865;52.552;13.434;2022-07-23T10:28:19;21.60;99.90
13589;DHT22;6865;52.552;13.434;2022-07-23T10:31:04;21.60;99.90
13589;DHT22;6865;52.552;13.434;2022-07-23T10:34:16;21.70;99.90
13589;DHT22;6865;52.552;13.434;2022-07-23T10:37:01;21.70;99.90
13589;DHT22;6865;52.552;13.434;2022-07-23T10:39:34;21.50;99.90
13589;DHT22;6865;52.552;13.434;2022-07-23T10:42:17;21.50;99.90
13589;DHT22;6865;52.552;13.434;2022-07-23T10:44:48;21.50;99.90
13589;DHT22;6865;52.552;13.434;2022-07-23T10:47:26;21.70;99.90
13589;DHT22;6865;52.552;13.434;2022-07-23T10:50:23;21.60;99.90
13589;DHT22;6865;52.552;13.434;2022-07-23T10:58:01;21.80;99.90
13589;DHT22;6865;52.552;13.434;2022-07-23T11:00:33;22.00;99.90
13589;DHT22;6865;52.552;13.434;2022-07-23T11:03:02;22.10;99.90
13589;DHT22;6865;52.552;13.434;2022-07-23T11:05:44;22.00;99.90
13589;DHT22;6865;52.552;13.434;2022-07-23T11:08:19;22.00;99.90
13589;DHT22;6865;52.552;13.434;2022-07-23T11:13:28;22.30;99.80
13589;DHT22;6865;52.552;13.434;2022-07-23T11:32:06;22.30;98.40
13589;DHT22;6865;52.552;13.434;2022-07-23T11:34:44;22.30;98.70
13589;DHT22;6865;52.552;13.434;2022-07-23T11:37:27;22.50;97.90
13589;DHT22;6865;52.552;13.434;2022-07-23T11:39:56;22.40;97.70
13589;DHT22;6865;52.552;13.434;2022-07-23T11:42:24;22.50;98.10
13589;DHT22;6865;52.552;13.434;2022-07-23T11:44:56;22.70;97.50
13589;DHT22;6865;52.552;13.434;2022-07-23T11:47:25;22.90;97.50
13589;DHT22;6865;52.552;13.434;2022-07-23T11:49:57;23.00;97.00
13589;DHT22;6865;52.552;13.434;2022-07-23T11:52:24;23.00;96.30
13589;DHT22;6865;52.552;13.434;2022-07-23T11:55:00;23.30;96.10
13589;DHT22;6865;52.552;13.434;2022-07-23T11:57:30;23.30;96.10
13589;DHT22;6865;52.552;13.434;2022-07-23T12:02:39;23.10;95.90
13589;DHT22;6865;52.552;13.434;2022-07-23T12:05:07;23.20;95.50
13589;DHT22;6865;52.552;13.434;2022-07-23T12:07:43;23.10;95.40
13589;DHT22;6865;52.552;13.434;2022-07-23T12:10:39;23.00;95.50
13589;DHT22;6865;52.552;13.434;2022-07-23T12:13:11;22.90;95.60
13589;DHT22;6865;52.552;13.434;2022-07-23T12:15:43;23.10;95.50
13589;DHT22;6865;52.552;13.434;2022-07-23T12:18:13;23.40;94.80
13589;DHT22;6865;52.552;13.434;2022-07-23T12:20:42;23.70;94.00
13589;DHT22;6865;52.552;13.434;2022-07-23T12:23:12;23.90;93.60
13589;DHT22;6865;52.552;13.434;2022-07-23T12:25:47;23.80;93.40
13589;DHT22;6865;52.552;13.434;2022-07-23T12:28:22;24.00;93.30
13589;DHT22;6865;52.552;13.434;2022-07-23T12:30:55;24.00;92.80
13589;DHT22;6865;52.552;13.434;2022-07-23T12:33:40;23.70;93.10
13589;DHT22;6865;52.552;13.434;2022-07-23T12:36:08;23.50;93.30
13589;DHT22;6865;52.552;13.434;2022-07-23T12:38:47;23.80;92.60
13589;DHT22;6865;52.552;13.434;2022-07-23T12:41:16;23.90;92.50
13589;DHT22;6865;52.552;13.434;2022-07-23T12:43:44;24.00;92.70
13589;DHT22;6865;52.552;13.434;2022-07-23T12:46:16;24.20;92.40
13589;DHT22;6865;52.552;13.434;2022-07-23T12:51:31;24.30;92.10
13589;DHT22;6865;52.552;13.434;2022-07-23T12:54:06;24.50;90.90
13589;DHT22;6865;52.552;13.434;2022-07-23T12:56:35;24.30;91.40
13589;DHT22;6865;52.552;13.434;2022-07-23T13:01:33;24.00;91.40
13589;DHT22;6865;52.552;13.434;2022-07-23T13:04:20;23.80;91.90
13589;DHT22;6865;52.552;13.434;2022-07-23T13:06:55;23.80;91.70
13589;DHT22;6865;52.552;13.434;2022-07-23T13:09:29;24.00;91.30
13589;DHT22;6865;52.552;13.434;2022-07-23T13:11:59;24.20;91.30
13589;DHT22;6865;52.552;13.434;2022-07-23T13:14:26;24.30;91.10
13589;DHT22;6865;52.552;13.434;2022-07-23T13:16:54;24.30;90.70
13589;DHT22;6865;52.552;13.434;2022-07-23T13:19:41;24.30;90.80
13589;DHT22;6865;52.552;13.434;2022-07-23T13:22:07;24.10;91.00
13589;DHT22;6865;52.552;13.434;2022-07-23T13:24:35;24.00;90.80
13589;DHT22;6865;52.552;13.434;2022-07-23T13:27:05;24.00;91.00
13589;DHT22;6865;52.552;13.434;2022-07-23T13:29:37;23.80;91.70
13589;DHT22;6865;52.552;13.434;2022-07-23T13:32:03;23.70;91.70
13589;DHT22;6865;52.552;13.434;2022-07-23T13:34:36;23.60;92.10
13589;DHT22;6865;52.552;13.434;2022-07-23T13:37:05;23.40;91.90
13589;DHT22;6865;52.552;13.434;2022-07-23T13:39:31;23.40;91.40
13589;DHT22;6865;52.552;13.434;2022-07-23T13:42:04;23.60;91.30
13589;DHT22;6865;52.552;13.434;2022-07-23T13:44:34;23.90;90.50
13589;DHT22;6865;52.552;13.434;2022-07-23T13:47:02;24.00;90.30
13589;DHT22;6865;52.552;13.434;2022-07-23T13:49:28;24.00;90.60
13589;DHT22;6865;52.552;13.434;2022-07-23T13:51:55;24.10;90.50
13589;DHT22;6865;52.552;13.434;2022-07-23T13:54:23;24.10;90.30
13589;DHT22;6865;52.552;13.434;2022-07-23T13:56:50;24.20;89.80
13589;DHT22;6865;52.552;13.434;2022-07-23T13:59:18;24.20;90.00
13589;DHT22;6865;52.552;13.434;2022-07-23T14:01:44;24.00;90.30
13589;DHT22;6865;52.552;13.434;2022-07-23T14:04:32;23.90;90.50
13589;DHT22;6865;52.552;13.434;2022-07-23T14:07:00;23.90;90.40
13589;DHT22;6865;52.552;13.434;2022-07-23T14:09:27;23.90;90.20
13589;DHT22;6865;52.552;13.434;2022-07-23T14:11:53;24.10;89.60
13589;DHT22;6865;52.552;13.434;2022-07-23T14:14:20;24.10;89.60
13589;DHT22;6865;52.552;13.434;2022-07-23T14:16:47;24.10;89.10
13589;DHT22;6865;52.552;13.434;2022-07-23T14:19:14;23.90;89.50
13589;DHT22;6865;52.552;13.434;2022-07-23T14:21:41;23.90;88.80
13589;DHT22;6865;52.552;13.434;2022-07-23T14:24:08;23.70;89.30
13589;DHT22;6865;52.552;13.434;2022-07-23T14:26:35;24.00;88.40
13589;DHT22;6865;52.552;13.434;2022-07-23T14:29:03;24.10;87.30
13589;DHT22;6865;52.552;13.434;2022-07-23T14:31:31;24.10;87.80
13589;DHT22;6865;52.552;13.434;2022-07-23T14:33:57;24.00;87.60
13589;DHT22;6865;52.552;13.434;2022-07-23T14:36:25;24.10;86.40
13589;DHT22;6865;52.552;13.434;2022-07-23T14:38:54;24.10;86.40
13589;DHT22;6865;52.552;13.434;2022-07-23T14:41:22;24.30;85.60
13589;DHT22;6865;52.552;13.434;2022-07-23T14:43:53;24.50;86.60
13589;DHT22;6865;52.552;13.434;2022-07-23T14:46:20;24.50;85.70
13589;DHT22;6865;52.552;13.434;2022-07-23T14:48:47;24.60;85.50
13589;DHT22;6865;52.552;13.434;2022-07-23T14:51:13;24.40;84.60
13589;DHT22;6865;52.552;13.434;2022-07-23T14:53:40;24.40;84.30
13589;DHT22;6865;52.552;13.434;2022-07-23T14:56:07;24.40;84.60
13589;DHT22;6865;52.552;13.434;2022-07-23T14:58:34;24.50;84.40
13589;DHT22;6865;52.552;13.434;2022-07-23T15:01:03;24.50;84.00
13589;DHT22;6865;52.552;13.434;2022-07-23T15:03:30;24.60;83.60
13589;DHT22;6865;52.552;13.434;2022-07-23T15:06:06;24.60;81.80
13589;DHT22;6865;52.552;13.434;2022-07-23T15:08:33;24.50;82.00
13589;DHT22;6865;52.552;13.434;2022-07-23T15:11:00;24.50;80.50
13589;DHT22;6865;52.552;13.434;2022-07-23T15:13:26;24.50;80.60
13589;DHT22;6865;52.552;13.434;2022-07-23T15:15:54;24.40;80.40
13589;DHT22;6865;52.552;13.434;2022-07-23T15:18:22;24.40;80.30
13589;DHT22;6865;52.552;13.434;2022-07-23T15:20:49;24.30;80.80
13589;DHT22;6865;52.552;13.434;2022-07-23T15:23:16;24.30;80.00
13589;DHT22;6865;52.552;13.434;2022-07-23T15:25:42;24.20;80.20
13589;DHT22;6865;52.552;13.434;2022-07-23T15:28:16;24.20;80.00
13589;DHT22;6865;52.552;13.434;2022-07-23T15:30:47;24.10;80.70
13589;DHT22;6865;52.552;13.434;2022-07-23T15:33:14;24.20;80.80
13589;DHT22;6865;52.552;13.434;2022-07-23T15:35:48;24.30;80.90
13589;DHT22;6865;52.552;13.434;2022-07-23T15:38:15;24.20;79.60
13589;DHT22;6865;52.552;13.434;2022-07-23T15:40:49;24.30;78.60
13589;DHT22;6865;52.552;13.434;2022-07-23T15:43:16;24.30;78.70
13589;DHT22;6865;52.552;13.434;2022-07-23T15:45:43;24.30;78.30
13589;DHT22;6865;52.552;13.434;2022-07-23T15:48:12;24.40;77.70
13589;DHT22;6865;52.552;13.434;2022-07-23T15:50:38;24.50;78.50
13589;DHT22;6865;52.552;13.434;2022-07-23T15:53:11;24.30;77.80
13589;DHT22;6865;52.552;13.434;2022-07-23T15:55:41;24.20;78.50
13589;DHT22;6865;52.552;13.434;2022-07-23T15:58:11;24.20;77.50
13589;DHT22;6865;52.552;13.434;2022-07-23T16:00:39;24.20;77.70
13589;DHT22;6865;52.552;13.434;2022-07-23T16:03:06;24.20;76.80
13589;DHT22;6865;52.552;13.434;2022-07-23T16:05:33;24.00;76.50
13589;DHT22;6865;52.552;13.434;2022-07-23T16:08:02;24.20;75.60
13589;DHT22;6865;52.552;13.434;2022-07-23T16:10:29;24.10;75.00
13589;DHT22;6865;52.552;13.434;2022-07-23T16:12:56;24.10;75.90
13589;DHT22;6865;52.552;13.434;2022-07-23T16:15:23;24.00;76.80
13589;DHT22;6865;52.552;13.434;2022-07-23T16:17:50;23.90;75.90
13589;DHT22;6865;52.552;13.434;2022-07-23T16:20:16;23.80;76.10
13589;DHT22;6865;52.552;13.434;2022-07-23T16:22:43;23.80;76.20
13589;DHT22;6865;52.552;13.434;2022-07-23T16:25:10;23.50;77.00
13589;DHT22;6865;52.552;13.434;2022-07-23T16:27:37;23.70;76.80